Terminal Aerodrome Forecast
Issued by NWS

Home | Current Version | Previous Version | Text Only | Print | Product List | Glossary Off
Versions: 1 2 3 4 5 6 7 8 9 10 11 12 13 14 15 16 17 18 19 20 21 22 23 24

176
FTUS43 KBIS 261134
TAFJMS
TAF
KJMS 261134Z 2612/2712 02005KT P6SM SCT035 BKN070
     FM261600 08006KT P6SM VCTS SCT250CB
     FM262000 04006KT P6SM BKN250=

USA.gov is the U.S. government's official web portal to all federal, state and local government web resources and services.